الصفحة الرئيسية
METAR-TAF:

METAR-TAF

مطار :

سكوبيه, مقدونيا

دائرة عرض: 41-58N, خط طول: 021-39E, ارتفاع: 238 متر

مراقبة الطقس الحالي

تاريخ ووقت الإصدار 39 دقيقة قبل الساعة 20:00UTC
ريح 2 عقدةمن اتجاهات متغيرة
درجة الحرارة 14°درجة مئوية
الرطوبة 63%
ضغط 1018 hPa
الرؤية 10 كم أو أكثر
غيوم قليلة على ارتفاع 6000 قدم
غيوم متفرقة على ارتفاع 10000 قدم

METAR: LWSK 292000Z VRB02KT 9999 FEW060 SCT100 14/07 Q1018 NOSIG

زمن: 22:39 (20:39 UTC)

توقعات

تاريخ ووقت الإصدار 3ساعات و 9 دقيقة قبل الساعة 17:30UTC
التوقعات صالحة من29 الساعة 18 UTC إلى 30 الساعة 18 UTC
ريح 3 عقدةمن اتجاهات متغيرة
الرؤية 10 كم أو أكثر
غيوم قليلة على ارتفاع 5000 قدم
نظرية الاحتمالات 30% :
مؤقت
من 29 الساعة 18 UTC إلى 29 الساعة 21 UTC
غيوم قليلة على ارتفاع 3300 قدم, مزنة ركامية.
غيوم مفككة على ارتفاع 4000 قدم
زخات من المطر
مؤقت
من 30 الساعة 11 UTC إلى 30 الساعة 17 UTC
ريح 15 عقدةمن اتجاهات متغيرة
غيوم قليلة على ارتفاع 3300 قدم, مزنة ركامية.
غيوم مفككة على ارتفاع 4000 قدم
عاصفة رعدية, مطر

TAF: LWSK 291730Z 2918/3018 VRB03KT 9999 FEW050 PROB30 TEMPO 2918/2921 SHRA FEW033CB BKN040 TEMPO 3011/3017 VRB15KT TSRA FEW033CB BKN040

أرصاد الطقس والتوقعات من أكثر من 4000 مطار (تقارير الطقس للمطار METAR والتنبؤ بالطقس بالمطارTAF).

المحطات المتاحة هي النقط الصفراء والحمراء على الخريطة.

حرك المؤشر فوق النقطة لمعرفة اسم المحطة.

ثم انقر لمعرفة أرصاد وتوقعات الطقس.

لتغيير الخارطة: اضغط على الأزرار الخضراء مع رمز الصليب الأسود للتكبير. على الزر الأخضر مع شرطة للتصغير، أو على الأسهم الخضراء للخرائط المجاورة.


METAR-TAF: